createdAt,value
2023-06-07T00:00:49.696Z,56.21
2023-06-07T00:01:53.510Z,55.92
2023-06-07T00:02:59.739Z,55.94
2023-06-07T00:04:04.344Z,56.60
2023-06-07T00:05:08.402Z,57.10
2023-06-07T00:06:11.963Z,57.89
2023-06-07T00:07:18.767Z,58.29
2023-06-07T00:08:22.318Z,58.40
2023-06-07T00:09:27.709Z,59.40
2023-06-07T00:10:31.423Z,59.04
2023-06-07T00:11:36.101Z,59.23
2023-06-07T00:12:39.584Z,59.10
2023-06-07T00:13:45.748Z,59.07
2023-06-07T00:14:49.382Z,59.63
2023-06-07T00:15:55.350Z,59.92
2023-06-07T00:16:57.608Z,59.96
2023-06-07T00:18:02.137Z,60.15
2023-06-07T00:19:07.300Z,60.55
2023-06-07T00:20:11.660Z,60.76
2023-06-07T00:21:15.768Z,60.51
2023-06-07T00:22:20.419Z,60.94
2023-06-07T00:23:24.940Z,60.98
2023-06-07T00:24:28.803Z,59.13
2023-06-07T00:25:32.691Z,59.52
2023-06-07T00:26:36.423Z,59.67
2023-06-07T00:27:44.470Z,59.32
2023-06-07T00:28:47.612Z,59.01
2023-06-07T00:29:52.166Z,59.51
2023-06-07T00:30:58.766Z,59.98
2023-06-07T00:32:05.242Z,60.11
2023-06-07T00:33:08.870Z,60.09
2023-06-07T00:34:12.654Z,60.04
2023-06-07T00:35:18.929Z,59.68
2023-06-07T00:36:22.698Z,59.89
2023-06-07T00:37:27.611Z,60.20
2023-06-07T00:38:32.319Z,60.65
2023-06-07T00:39:38.435Z,60.74
2023-06-07T00:40:41.749Z,60.85
2023-06-07T00:41:48.334Z,61.81
2023-06-07T00:42:53.677Z,62.23
2023-06-07T00:43:56.980Z,62.06
2023-06-07T00:45:02.452Z,61.96
2023-06-07T00:46:07.272Z,61.88
2023-06-07T00:47:10.588Z,61.80
2023-06-07T00:48:14.621Z,61.84
2023-06-07T00:49:21.680Z,61.66
2023-06-07T00:50:25.296Z,61.14
2023-06-07T00:51:34.624Z,61.97
2023-06-07T00:52:40.663Z,60.81
2023-06-07T00:53:46.148Z,61.21
2023-06-07T00:54:52.055Z,60.75
2023-06-07T00:55:54.930Z,60.24
2023-06-07T00:56:58.537Z,60.24
2023-06-07T00:58:02.459Z,60.24
2023-06-07T00:59:07.246Z,60.46
2023-06-07T01:00:14.653Z,60.09
2023-06-07T01:01:21.952Z,60.52
2023-06-07T01:02:25.829Z,60.63
2023-06-07T01:03:34.256Z,60.26
2023-06-07T01:04:40.230Z,60.41
2023-06-07T01:05:46.410Z,60.34
2023-06-07T01:06:50.746Z,60.54
2023-06-07T01:07:55.641Z,60.68
2023-06-07T01:09:00.897Z,60.54
2023-06-07T01:10:07.740Z,60.52
2023-06-07T01:11:16.795Z,60.62
2023-06-07T01:12:20.726Z,60.61
2023-06-07T01:13:24.214Z,60.84
2023-06-07T01:14:27.379Z,60.60
2023-06-07T01:15:34.245Z,60.69
2023-06-07T01:16:39.260Z,60.50
2023-06-07T01:17:44.634Z,60.60
2023-06-07T01:18:48.690Z,60.77
2023-06-07T01:19:56.016Z,60.65
2023-06-07T01:21:02.654Z,60.12
2023-06-07T01:22:10.045Z,60.72
2023-06-07T01:23:13.848Z,60.78
2023-06-07T01:24:24.315Z,60.82
2023-06-07T01:25:26.816Z,60.36
2023-06-07T01:26:30.507Z,60.56
2023-06-07T01:27:35.431Z,60.47
2023-06-07T01:28:43.582Z,60.44
2023-06-07T01:29:48.237Z,60.86
2023-06-07T01:30:52.364Z,60.32
2023-06-07T01:32:01.017Z,60.44
2023-06-07T01:33:05.806Z,60.54
2023-06-07T01:34:09.780Z,60.56
2023-06-07T01:35:14.301Z,61.20
2023-06-07T01:36:16.888Z,60.87
2023-06-07T01:37:24.717Z,61.24
2023-06-07T01:38:32.255Z,60.29
2023-06-07T01:39:36.426Z,60.25
2023-06-07T01:40:40.425Z,59.84
2023-06-07T01:41:43.819Z,59.98
2023-06-07T01:42:49.302Z,59.78
2023-06-07T01:43:52.827Z,59.53
2023-06-07T01:44:56.321Z,59.76
2023-06-07T01:46:01.594Z,60.51
2023-06-07T01:47:05.706Z,60.46
2023-06-07T01:48:09.239Z,60.17
2023-06-07T01:49:14.036Z,60.66
2023-06-07T01:50:23.184Z,60.59
2023-06-07T01:51:26.643Z,60.67
2023-06-07T01:52:32.774Z,60.88
2023-06-07T01:53:36.960Z,60.67
2023-06-07T01:54:40.506Z,60.89
2023-06-07T01:55:44.927Z,60.74
2023-06-07T01:57:05.927Z,60.86
2023-06-07T01:58:11.479Z,60.69
2023-06-07T01:59:15.637Z,60.36
2023-06-07T02:00:27.900Z,59.95
2023-06-07T02:01:37.552Z,60.56
2023-06-07T02:03:00.253Z,60.73
2023-06-07T02:04:06.530Z,61.45
2023-06-07T02:05:13.772Z,61.67
2023-06-07T02:06:19.867Z,61.69
2023-06-07T02:07:26.425Z,61.63
2023-06-07T02:08:37.043Z,61.63
2023-06-07T02:09:42.044Z,61.67
2023-06-07T02:10:46.542Z,61.51
2023-06-07T02:11:50.465Z,61.70
2023-06-07T02:12:55.982Z,61.64
2023-06-07T02:14:01.907Z,61.47
2023-06-07T02:15:08.069Z,61.72
2023-06-07T02:16:12.746Z,61.70
2023-06-07T02:17:17.559Z,61.72
2023-06-07T02:18:22.722Z,61.58
2023-06-07T02:19:29.681Z,61.68
2023-06-07T02:20:36.678Z,61.72
2023-06-07T02:21:41.845Z,61.45
2023-06-07T02:22:50.831Z,61.55
2023-06-07T02:23:54.660Z,61.52
2023-06-07T02:24:59.412Z,61.81
2023-06-07T02:26:04.606Z,61.83
2023-06-07T02:27:08.152Z,61.68
2023-06-07T02:28:11.658Z,61.48
2023-06-07T02:29:16.638Z,62.48
2023-06-07T02:30:20.785Z,62.20
2023-06-07T02:31:25.017Z,61.88
2023-06-07T02:32:30.652Z,61.43
2023-06-07T02:33:34.299Z,61.10
2023-06-07T02:34:38.117Z,61.16
2023-06-07T02:35:42.798Z,60.87
2023-06-07T02:36:48.162Z,60.97
2023-06-07T02:37:52.498Z,60.59
2023-06-07T02:38:56.031Z,60.11
2023-06-07T02:40:00.530Z,60.10
2023-06-07T02:41:04.155Z,59.97
2023-06-07T02:42:08.225Z,60.18
2023-06-07T02:43:15.205Z,60.13
2023-06-07T02:44:18.862Z,59.82
2023-06-07T02:45:22.037Z,60.03
2023-06-07T02:46:25.329Z,59.88
2023-06-07T02:47:30.001Z,59.76
2023-06-07T02:48:34.037Z,59.45
2023-06-07T02:49:37.639Z,59.23
2023-06-07T02:50:41.972Z,59.27
2023-06-07T02:51:46.729Z,58.78
2023-06-07T02:52:51.853Z,58.57
2023-06-07T02:53:55.506Z,58.19
2023-06-07T02:54:59.535Z,58.00
2023-06-07T02:56:03.309Z,58.15
2023-06-07T02:57:06.236Z,58.35
2023-06-07T02:58:09.019Z,58.41
2023-06-07T02:59:13.668Z,58.68
2023-06-07T03:00:19.472Z,58.41
2023-06-07T03:01:26.700Z,57.36
2023-06-07T03:02:33.799Z,57.51
2023-06-07T03:03:40.193Z,56.99
2023-06-07T03:04:48.213Z,57.32
2023-06-07T03:05:51.724Z,56.34
2023-06-07T03:06:58.616Z,56.45
2023-06-07T03:08:05.594Z,56.27
2023-06-07T03:09:10.712Z,55.15
2023-06-07T03:11:19.168Z,54.96
2023-06-07T03:12:23.929Z,54.70
2023-06-07T03:13:30.740Z,55.14
2023-06-07T03:14:37.868Z,55.23
2023-06-07T03:15:43.328Z,55.11
2023-06-07T03:16:48.435Z,54.89
2023-06-07T03:17:52.169Z,54.05
2023-06-07T03:18:57.177Z,54.01
2023-06-07T03:20:04.131Z,54.10
2023-06-07T03:21:12.042Z,53.56
2023-06-07T03:22:16.360Z,53.76
2023-06-07T03:23:19.657Z,53.45
2023-06-07T03:24:25.211Z,52.93
2023-06-07T03:25:30.222Z,52.94
2023-06-07T03:26:34.133Z,52.99
2023-06-07T03:27:38.226Z,54.17
2023-06-07T03:28:45.916Z,54.01
2023-06-07T03:29:49.516Z,53.00
2023-06-07T03:30:53.322Z,53.39
2023-06-07T03:31:58.795Z,53.41
2023-06-07T03:33:05.851Z,53.54
2023-06-07T03:34:11.530Z,53.34
2023-06-07T03:35:15.134Z,53.13
2023-06-07T03:36:29.741Z,53.17
2023-06-07T03:37:34.287Z,53.56
2023-06-07T03:38:38.268Z,53.33
2023-06-07T03:39:42.105Z,54.00
2023-06-07T03:40:45.477Z,53.14
2023-06-07T03:41:51.208Z,52.65
2023-06-07T03:42:55.954Z,52.83
2023-06-07T03:43:59.936Z,53.57
2023-06-07T03:45:12.272Z,53.29
2023-06-07T03:46:17.332Z,53.41
2023-06-07T03:47:21.684Z,53.42
2023-06-07T03:48:25.080Z,53.80
2023-06-07T03:49:30.466Z,53.51
2023-06-07T03:50:34.184Z,52.96
2023-06-07T03:51:41.008Z,52.61
2023-06-07T03:52:44.841Z,54.29
2023-06-07T03:53:48.451Z,53.20
2023-06-07T03:54:51.951Z,53.92
2023-06-07T03:55:57.550Z,54.43
2023-06-07T03:57:03.263Z,53.47
2023-06-07T03:58:07.696Z,54.07
2023-06-07T03:59:14.232Z,53.35
2023-06-07T04:00:20.598Z,54.48
2023-06-07T04:01:27.524Z,54.20
2023-06-07T04:02:34.313Z,55.37
2023-06-07T04:03:37.795Z,55.02
2023-06-07T04:04:43.244Z,55.31
2023-06-07T04:05:46.476Z,56.68
2023-06-07T04:06:50.255Z,57.51
2023-06-07T04:07:55.128Z,56.97
2023-06-07T04:08:59.116Z,56.62
2023-06-07T04:10:05.880Z,56.64
2023-06-07T04:11:09.610Z,56.46
2023-06-07T04:12:13.406Z,56.67
2023-06-07T04:13:18.698Z,56.26
2023-06-07T04:14:21.360Z,56.83
2023-06-07T04:15:24.729Z,56.46
2023-06-07T04:16:28.087Z,56.35
2023-06-07T04:17:31.648Z,56.26
2023-06-07T04:18:35.601Z,56.03
2023-06-07T04:19:45.555Z,55.64
2023-06-07T04:20:45.011Z,54.91
2023-06-07T04:21:52.363Z,54.15
2023-06-07T04:22:55.979Z,54.40
2023-06-07T04:24:00.062Z,54.14
2023-06-07T04:25:05.502Z,53.59
2023-06-07T04:26:09.569Z,53.64
2023-06-07T04:27:15.330Z,53.80
2023-06-07T04:28:20.092Z,53.90
2023-06-07T04:29:22.539Z,53.76
2023-06-07T04:30:27.941Z,53.60
2023-06-07T04:31:34.349Z,53.01
2023-06-07T04:32:41.165Z,52.24
2023-06-07T04:33:50.707Z,51.83
2023-06-07T04:34:56.872Z,50.63
2023-06-07T04:36:00.815Z,49.35
2023-06-07T04:37:05.787Z,49.42
2023-06-07T04:38:10.009Z,49.55
2023-06-07T04:39:12.790Z,48.87
2023-06-07T04:40:19.159Z,48.21
2023-06-07T04:41:26.288Z,47.22
2023-06-07T04:42:30.321Z,45.93
2023-06-07T04:43:35.276Z,45.96
2023-06-07T04:44:38.054Z,44.72
2023-06-07T04:45:42.837Z,44.25
2023-06-07T04:46:50.695Z,44.02
2023-06-07T04:47:54.712Z,43.06
2023-06-07T04:49:00.781Z,42.15
2023-06-07T04:50:05.436Z,41.38
2023-06-07T04:51:13.508Z,41.11
2023-06-07T04:52:21.798Z,41.78
2023-06-07T04:53:27.284Z,41.81
2023-06-07T04:54:30.582Z,40.98
2023-06-07T04:55:35.352Z,40.12
2023-06-07T04:56:39.896Z,39.71
2023-06-07T04:57:44.229Z,39.37
2023-06-07T04:58:51.194Z,38.78
2023-06-07T04:59:56.147Z,39.01
2023-06-07T05:01:04.467Z,38.15
2023-06-07T05:02:08.282Z,39.01
2023-06-07T05:03:14.955Z,39.83
2023-06-07T05:04:18.943Z,38.80
2023-06-07T05:05:25.861Z,38.36
2023-06-07T05:06:31.702Z,38.12
2023-06-07T05:07:35.932Z,37.87
2023-06-07T05:08:40.371Z,38.08
2023-06-07T05:09:44.249Z,38.43
2023-06-07T05:10:48.329Z,38.45
2023-06-07T05:11:52.982Z,37.25
2023-06-07T05:13:00.418Z,35.84
2023-06-07T05:14:04.625Z,34.94
2023-06-07T05:15:08.919Z,34.91
2023-06-07T05:16:14.226Z,34.29
2023-06-07T05:17:19.933Z,33.67
2023-06-07T05:18:27.904Z,32.93
2023-06-07T05:19:31.904Z,31.54
2023-06-07T05:20:35.873Z,30.26
2023-06-07T05:21:40.035Z,30.25
2023-06-07T05:22:45.492Z,28.78
2023-06-07T05:23:49.378Z,27.66
2023-06-07T05:24:59.057Z,26.73
2023-06-07T05:26:01.985Z,25.04
2023-06-07T05:27:06.274Z,24.51
2023-06-07T05:28:13.418Z,24.01
2023-06-07T05:29:18.825Z,24.13
2023-06-07T05:30:22.750Z,25.39
2023-06-07T05:31:29.394Z,25.08
2023-06-07T05:32:33.819Z,24.91
2023-06-07T05:33:52.900Z,23.94
2023-06-07T05:34:59.982Z,23.58
2023-06-07T05:36:08.264Z,23.82
2023-06-07T05:37:10.936Z,23.99
2023-06-07T05:38:14.343Z,24.30
2023-06-07T05:39:20.431Z,25.08
2023-06-07T05:40:24.068Z,25.36
2023-06-07T05:41:30.189Z,25.39
2023-06-07T05:42:36.996Z,25.57
2023-06-07T05:43:43.083Z,25.39
2023-06-07T05:44:47.652Z,25.32
2023-06-07T05:45:50.005Z,24.90
2023-06-07T05:46:54.083Z,24.92
2023-06-07T05:47:58.044Z,25.31
2023-06-07T05:49:05.084Z,25.05
2023-06-07T05:50:13.283Z,24.92
2023-06-07T05:51:16.975Z,24.84
2023-06-07T05:52:20.814Z,24.88
2023-06-07T05:53:27.738Z,24.76
2023-06-07T05:54:31.247Z,24.34
2023-06-07T05:55:34.029Z,24.19
2023-06-07T05:56:36.298Z,23.68
2023-06-07T05:57:43.546Z,23.03
2023-06-07T05:58:48.205Z,23.28
2023-06-07T05:59:52.200Z,22.90
2023-06-07T06:00:56.190Z,23.46
2023-06-07T06:01:59.911Z,23.45
2023-06-07T06:03:05.927Z,23.25
2023-06-07T06:04:09.685Z,23.03
2023-06-07T06:05:12.853Z,23.25
2023-06-07T06:06:17.451Z,22.38
2023-06-07T06:07:21.347Z,21.91
2023-06-07T06:08:25.064Z,22.29
2023-06-07T06:09:28.369Z,22.08
2023-06-07T06:10:36.161Z,21.97
2023-06-07T06:11:41.325Z,21.90
2023-06-07T06:12:44.043Z,21.57
2023-06-07T06:13:46.453Z,21.68
2023-06-07T06:14:50.273Z,21.58
2023-06-07T06:15:55.236Z,21.30
2023-06-07T06:16:58.864Z,21.09
2023-06-07T06:18:02.522Z,21.31
2023-06-07T06:19:08.935Z,20.59
2023-06-07T06:20:15.053Z,20.67
2023-06-07T06:21:20.429Z,20.65
2023-06-07T06:22:23.054Z,20.33
2023-06-07T06:23:29.621Z,20.24
2023-06-07T06:24:33.200Z,20.56
2023-06-07T06:25:40.151Z,21.06
2023-06-07T06:26:43.722Z,21.41
2023-06-07T06:27:47.573Z,21.43
2023-06-07T06:28:50.985Z,21.82
2023-06-07T06:29:54.219Z,21.34
2023-06-07T06:30:58.578Z,21.12
2023-06-07T06:32:02.496Z,21.41
2023-06-07T06:33:06.014Z,20.62
2023-06-07T06:34:12.563Z,20.49
2023-06-07T06:35:18.106Z,19.69
2023-06-07T06:36:23.764Z,19.65
2023-06-07T06:38:39.127Z,19.98
2023-06-07T06:39:45.763Z,20.54
2023-06-07T06:40:51.970Z,20.19
2023-06-07T06:41:54.703Z,20.25
2023-06-07T06:43:00.764Z,20.27
2023-06-07T06:44:06.763Z,20.21
2023-06-07T06:45:09.768Z,20.11
2023-06-07T06:46:15.156Z,19.61
2023-06-07T06:47:18.761Z,19.34
2023-06-07T06:48:23.206Z,18.79
2023-06-07T06:49:26.709Z,19.08
2023-06-07T06:50:34.941Z,19.71
2023-06-07T06:51:38.544Z,20.00
2023-06-07T06:52:43.074Z,19.66
2023-06-07T06:53:46.686Z,19.52
2023-06-07T06:54:52.625Z,20.20
2023-06-07T06:55:56.849Z,20.00
2023-06-07T06:57:00.548Z,20.54
2023-06-07T06:58:03.024Z,20.42
2023-06-07T06:59:08.268Z,20.95
2023-06-07T07:00:12.861Z,22.06
2023-06-07T07:01:18.575Z,21.87
2023-06-07T07:02:21.618Z,21.46
2023-06-07T07:03:25.335Z,22.28
2023-06-07T07:04:29.633Z,22.60
2023-06-07T07:05:40.755Z,22.87
2023-06-07T07:06:44.857Z,22.91
2023-06-07T07:07:49.634Z,23.15
2023-06-07T07:08:52.930Z,22.92
2023-06-07T07:09:57.509Z,22.21
2023-06-07T07:11:01.256Z,21.74
2023-06-07T07:12:07.785Z,21.71
2023-06-07T07:13:12.650Z,22.25
2023-06-07T07:14:18.287Z,23.43
2023-06-07T07:15:22.822Z,23.02
2023-06-07T07:16:28.247Z,22.55
2023-06-07T07:17:33.218Z,22.00
2023-06-07T07:18:36.984Z,21.86
2023-06-07T07:19:49.393Z,22.24
2023-06-07T07:20:53.992Z,21.84
2023-06-07T07:21:58.144Z,21.47
2023-06-07T07:23:06.193Z,21.23
2023-06-07T07:24:11.524Z,21.94
2023-06-07T07:25:15.012Z,21.95
2023-06-07T07:26:18.524Z,21.40
2023-06-07T07:27:25.986Z,21.15
2023-06-07T07:28:29.609Z,21.24
2023-06-07T07:29:32.896Z,20.76
2023-06-07T07:30:35.267Z,21.20
2023-06-07T07:31:42.055Z,20.92
2023-06-07T07:32:45.571Z,20.31
2023-06-07T07:33:50.369Z,20.34
2023-06-07T07:34:53.844Z,19.93
2023-06-07T07:36:01.135Z,20.86
2023-06-07T07:37:07.053Z,20.56
2023-06-07T07:38:13.330Z,20.96
2023-06-07T07:39:19.125Z,21.34
2023-06-07T07:40:28.112Z,21.49
2023-06-07T07:41:31.510Z,21.64
2023-06-07T07:42:38.075Z,20.41
2023-06-07T07:43:48.964Z,20.78
2023-06-07T07:44:52.477Z,20.33
2023-06-07T07:45:57.717Z,20.55
2023-06-07T07:47:01.256Z,20.21
2023-06-07T07:48:05.017Z,20.06
2023-06-07T07:49:12.325Z,20.11
2023-06-07T07:50:17.091Z,20.48
2023-06-07T07:51:20.183Z,20.50
2023-06-07T07:52:24.842Z,21.00
2023-06-07T07:53:28.667Z,21.52
2023-06-07T07:54:32.444Z,21.59
2023-06-07T07:55:40.137Z,21.44
2023-06-07T07:56:44.918Z,21.91
2023-06-07T07:57:48.830Z,22.39
2023-06-07T07:58:53.391Z,21.82
2023-06-07T07:59:57.704Z,21.32
2023-06-07T08:01:02.438Z,21.12
2023-06-07T08:02:07.967Z,21.08
2023-06-07T08:03:11.048Z,21.03
2023-06-07T08:04:14.782Z,20.93
2023-06-07T08:05:18.306Z,21.14
2023-06-07T08:06:21.802Z,21.16
2023-06-07T08:07:25.347Z,20.02
2023-06-07T08:08:28.609Z,20.06
2023-06-07T08:09:32.619Z,19.55
2023-06-07T08:10:37.309Z,19.67
2023-06-07T08:11:40.720Z,19.65
2023-06-07T08:12:44.914Z,19.87
2023-06-07T08:13:50.397Z,19.81
2023-06-07T08:14:55.693Z,20.09
2023-06-07T08:15:59.397Z,20.22
2023-06-07T08:17:09.068Z,20.32
2023-06-07T08:18:13.282Z,20.14
2023-06-07T08:19:16.868Z,19.76
2023-06-07T08:20:20.491Z,19.81
2023-06-07T08:21:24.048Z,20.27
2023-06-07T08:22:27.109Z,20.51
2023-06-07T08:23:31.030Z,20.32
2023-06-07T08:24:35.783Z,20.51
2023-06-07T08:25:38.442Z,20.43
2023-06-07T08:26:43.278Z,20.21
2023-06-07T08:27:48.909Z,20.53
2023-06-07T08:28:52.612Z,20.70
2023-06-07T08:29:55.804Z,20.54
2023-06-07T08:30:59.878Z,20.47
2023-06-07T08:32:03.048Z,21.07
2023-06-07T08:33:08.179Z,20.55
2023-06-07T08:34:21.427Z,20.03
2023-06-07T08:35:27.177Z,20.20
2023-06-07T08:36:35.372Z,21.26
2023-06-07T08:37:39.139Z,20.84
2023-06-07T08:38:43.888Z,21.28
2023-06-07T08:39:48.247Z,21.93
2023-06-07T08:40:54.056Z,22.27
2023-06-07T08:41:57.660Z,22.70
2023-06-07T08:43:01.650Z,22.00
2023-06-07T08:44:05.609Z,22.13
2023-06-07T08:45:17.163Z,21.87
2023-06-07T08:46:22.825Z,21.85
2023-06-07T08:47:27.029Z,22.24
2023-06-07T08:48:30.912Z,22.60
2023-06-07T08:49:39.336Z,22.18
2023-06-07T08:50:46.441Z,21.77
2023-06-07T08:51:52.820Z,21.83
2023-06-07T08:52:59.309Z,21.45
2023-06-07T08:54:03.872Z,21.51
2023-06-07T08:55:13.586Z,22.48
2023-06-07T08:56:18.460Z,22.81
2023-06-07T08:57:21.507Z,21.88
2023-06-07T08:58:25.232Z,22.02
2023-06-07T08:59:29.256Z,22.34
2023-06-07T09:00:33.072Z,22.68
2023-06-07T09:01:36.095Z,21.81
2023-06-07T09:02:40.626Z,21.72
2023-06-07T09:03:43.911Z,21.82
2023-06-07T09:04:54.829Z,21.40
2023-06-07T09:05:58.336Z,21.22
2023-06-07T09:07:04.717Z,22.21
2023-06-07T09:08:08.145Z,21.52
2023-06-07T09:09:11.508Z,21.69
2023-06-07T09:10:15.402Z,21.56
2023-06-07T09:11:21.824Z,22.08
2023-06-07T09:12:26.857Z,21.25
2023-06-07T09:13:31.912Z,21.17
2023-06-07T09:14:36.587Z,21.22
2023-06-07T09:15:40.205Z,21.52
2023-06-07T09:17:00.334Z,21.23
2023-06-07T09:18:03.498Z,20.98
2023-06-07T09:19:07.532Z,21.01
2023-06-07T09:20:13.434Z,21.23
2023-06-07T09:21:26.209Z,21.11
2023-06-07T09:22:31.370Z,21.42
2023-06-07T09:23:37.901Z,21.17
2023-06-07T09:24:40.725Z,21.48
2023-06-07T09:25:47.479Z,21.70
2023-06-07T09:26:51.284Z,21.95
2023-06-07T09:27:57.956Z,21.26
2023-06-07T09:29:03.634Z,20.91
2023-06-07T09:30:07.782Z,21.31
2023-06-07T09:31:14.544Z,21.41
2023-06-07T09:32:22.222Z,22.26
2023-06-07T09:33:35.333Z,21.56
2023-06-07T09:34:39.018Z,21.60
2023-06-07T09:35:42.500Z,21.29
2023-06-07T09:36:53.725Z,20.54
2023-06-07T09:37:59.763Z,19.99
2023-06-07T09:39:07.451Z,20.30
2023-06-07T09:40:10.879Z,19.71
2023-06-07T09:41:16.238Z,19.01
2023-06-07T09:42:18.431Z,19.17
2023-06-07T09:43:26.367Z,19.29
2023-06-07T09:44:32.063Z,19.32
2023-06-07T09:45:36.762Z,19.59
2023-06-07T09:46:40.607Z,19.84
2023-06-07T09:47:44.362Z,20.11
2023-06-07T09:48:50.850Z,20.22
2023-06-07T09:49:58.497Z,19.83
2023-06-07T09:51:02.302Z,19.96
2023-06-07T09:52:06.027Z,20.33
2023-06-07T09:53:11.253Z,19.92
2023-06-07T09:54:15.954Z,20.49
2023-06-07T09:55:33.012Z,21.29
2023-06-07T09:56:38.440Z,21.06
2023-06-07T09:57:42.126Z,20.73
2023-06-07T09:58:48.589Z,21.52
2023-06-07T10:00:05.782Z,22.03
2023-06-07T10:01:14.338Z,21.63
2023-06-07T10:02:25.055Z,21.92
2023-06-07T10:03:29.286Z,21.22
2023-06-07T10:04:36.570Z,22.19
2023-06-07T10:05:40.292Z,21.55
2023-06-07T10:06:44.941Z,21.88
2023-06-07T10:07:52.588Z,21.66
2023-06-07T10:08:56.899Z,21.55
2023-06-07T10:10:00.928Z,20.96
2023-06-07T10:11:05.175Z,21.02
2023-06-07T10:12:08.426Z,21.20
2023-06-07T10:13:13.960Z,21.92
2023-06-07T10:14:22.862Z,21.47
2023-06-07T10:15:28.755Z,20.89
2023-06-07T10:16:35.097Z,21.63
2023-06-07T10:17:52.239Z,21.44
2023-06-07T10:18:58.866Z,20.14
2023-06-07T10:20:06.189Z,19.59
2023-06-07T10:21:17.709Z,19.73
2023-06-07T10:22:24.186Z,19.58
2023-06-07T10:23:38.417Z,19.17
2023-06-07T10:24:44.824Z,19.59
2023-06-07T10:25:50.217Z,20.38
2023-06-07T10:26:57.246Z,19.84
2023-06-07T10:28:05.050Z,19.75
2023-06-07T10:29:12.790Z,19.84
2023-06-07T10:30:18.237Z,20.44
2023-06-07T10:31:23.685Z,20.34
2023-06-07T10:32:29.251Z,20.31
2023-06-07T10:33:33.920Z,20.25
2023-06-07T10:34:38.836Z,20.42
2023-06-07T10:35:42.672Z,20.21
2023-06-07T10:36:46.791Z,20.46
2023-06-07T10:37:52.411Z,19.62
2023-06-07T10:39:05.016Z,20.64
2023-06-07T10:40:13.578Z,20.52
2023-06-07T10:41:17.273Z,20.37
2023-06-07T10:42:20.814Z,19.77
2023-06-07T10:43:28.927Z,20.29
2023-06-07T10:44:32.959Z,20.81
2023-06-07T10:45:36.674Z,21.01
2023-06-07T10:46:42.274Z,21.02
2023-06-07T10:47:47.684Z,21.87
2023-06-07T10:48:52.185Z,22.14
2023-06-07T10:49:55.991Z,23.22
2023-06-07T10:50:59.842Z,23.59
2023-06-07T10:52:05.637Z,23.21
2023-06-07T10:53:12.525Z,23.58
2023-06-07T10:54:21.006Z,23.15
2023-06-07T10:55:25.866Z,23.29
2023-06-07T10:56:38.081Z,23.02
2023-06-07T10:57:41.798Z,23.30
2023-06-07T10:58:46.023Z,23.32
2023-06-07T10:59:49.401Z,23.21
2023-06-07T11:00:53.721Z,23.38
2023-06-07T11:02:15.402Z,23.17
2023-06-07T11:03:30.076Z,23.10
2023-06-07T11:04:37.423Z,23.01
2023-06-07T11:06:00.837Z,23.00
2023-06-07T11:07:21.522Z,23.40
2023-06-07T11:08:31.048Z,24.00
2023-06-07T11:09:37.019Z,24.13
2023-06-07T11:10:40.127Z,23.99
2023-06-07T11:11:43.715Z,23.94
2023-06-07T11:12:50.135Z,23.50
2023-06-07T11:13:58.239Z,24.55
2023-06-07T11:15:23.208Z,23.76
2023-06-07T11:16:32.066Z,24.22
2023-06-07T11:17:56.127Z,24.46
2023-06-07T11:19:04.589Z,25.04
2023-06-07T11:20:13.733Z,24.40
2023-06-07T11:21:19.847Z,24.34
2023-06-07T11:22:23.558Z,25.02
2023-06-07T11:23:30.016Z,25.06
2023-06-07T11:24:36.879Z,24.84
2023-06-07T11:25:40.822Z,24.64
2023-06-07T11:26:44.995Z,24.61
2023-06-07T11:27:54.727Z,24.90
2023-06-07T11:28:59.862Z,24.83
2023-06-07T11:30:04.370Z,24.76
2023-06-07T11:31:12.365Z,25.56
2023-06-07T11:32:16.077Z,25.74
2023-06-07T11:33:27.893Z,26.14
2023-06-07T11:34:32.321Z,26.02
2023-06-07T11:35:36.759Z,26.43
2023-06-07T11:36:42.019Z,26.37
2023-06-07T11:37:46.383Z,26.75
2023-06-07T11:38:55.114Z,26.54
2023-06-07T11:40:03.245Z,26.21
2023-06-07T11:41:07.987Z,26.33
2023-06-07T11:42:10.443Z,26.41
2023-06-07T11:43:13.588Z,26.61
2023-06-07T11:44:19.121Z,26.83
2023-06-07T11:45:23.123Z,27.27
2023-06-07T11:46:25.698Z,27.18
2023-06-07T11:47:29.266Z,27.55
2023-06-07T11:48:33.527Z,27.70
2023-06-07T11:49:39.434Z,28.00
2023-06-07T11:50:44.251Z,27.79
2023-06-07T11:51:51.044Z,28.25
2023-06-07T11:52:55.357Z,28.54
2023-06-07T11:54:00.054Z,28.41
2023-06-07T11:55:02.917Z,28.24
2023-06-07T11:56:06.060Z,27.82
2023-06-07T11:57:11.168Z,27.98
2023-06-07T11:58:15.011Z,28.24
2023-06-07T11:59:21.844Z,27.90
2023-06-07T12:00:24.718Z,27.91
2023-06-07T12:01:30.292Z,27.68
2023-06-07T12:02:37.394Z,27.71
2023-06-07T12:03:43.115Z,27.94
2023-06-07T12:04:46.406Z,27.76
2023-06-07T12:05:51.986Z,27.82
2023-06-07T12:06:56.926Z,28.51
2023-06-07T12:08:08.321Z,28.65
2023-06-07T12:09:17.108Z,28.27
2023-06-07T12:10:22.273Z,27.89
2023-06-07T12:11:25.339Z,27.61
2023-06-07T12:12:29.955Z,28.16
2023-06-07T12:13:37.992Z,27.87
2023-06-07T12:14:45.506Z,26.96
2023-06-07T12:15:57.199Z,27.41
2023-06-07T12:17:02.499Z,27.46
2023-06-07T12:18:05.939Z,26.95
2023-06-07T12:19:16.832Z,26.61
2023-06-07T12:20:20.568Z,27.15
2023-06-07T12:21:25.625Z,27.57
2023-06-07T12:22:27.783Z,26.42
2023-06-07T12:23:30.790Z,27.14
2023-06-07T12:24:37.699Z,27.30
2023-06-07T12:25:41.951Z,27.10
2023-06-07T12:26:45.864Z,27.16
2023-06-07T12:27:49.611Z,27.23
2023-06-07T12:28:55.538Z,27.71
2023-06-07T12:30:01.944Z,27.28
2023-06-07T12:31:06.495Z,26.94
2023-06-07T12:32:12.396Z,27.14
2023-06-07T12:33:17.169Z,26.97
2023-06-07T12:34:20.531Z,26.78
2023-06-07T12:35:26.850Z,27.21
2023-06-07T12:36:32.445Z,27.35
2023-06-07T12:37:41.913Z,27.79
2023-06-07T12:38:46.043Z,27.17
2023-06-07T12:39:52.187Z,27.82
2023-06-07T12:40:55.682Z,27.83
2023-06-07T12:41:59.594Z,27.82
2023-06-07T12:43:03.207Z,27.38
2023-06-07T12:44:07.784Z,27.47
2023-06-07T12:45:14.297Z,27.47
2023-06-07T12:46:18.345Z,27.61
2023-06-07T12:47:22.284Z,27.30
2023-06-07T12:48:25.839Z,27.64
2023-06-07T12:49:35.255Z,27.87
2023-06-07T12:50:38.910Z,28.78
2023-06-07T12:51:42.829Z,28.10
2023-06-07T12:52:46.872Z,27.72
2023-06-07T12:53:50.001Z,27.98
2023-06-07T12:54:55.014Z,28.48
2023-06-07T12:55:59.677Z,28.66
2023-06-07T12:57:03.181Z,28.25
2023-06-07T12:58:10.670Z,28.43
2023-06-07T12:59:13.442Z,28.57
2023-06-07T13:00:16.921Z,28.76
2023-06-07T13:01:20.494Z,29.12
2023-06-07T13:02:24.566Z,29.68
2023-06-07T13:03:28.228Z,28.88
2023-06-07T13:04:32.078Z,29.00
2023-06-07T13:05:35.424Z,28.93
2023-06-07T13:06:39.842Z,29.36
2023-06-07T13:07:43.033Z,29.09
2023-06-07T13:08:46.002Z,29.18
2023-06-07T13:09:52.583Z,29.53
2023-06-07T13:10:55.110Z,29.41
2023-06-07T13:11:59.554Z,29.59
2023-06-07T13:13:02.833Z,29.34
2023-06-07T13:14:06.866Z,29.22
2023-06-07T13:15:13.934Z,29.09
2023-06-07T13:16:18.936Z,29.07
2023-06-07T13:17:23.810Z,29.37
2023-06-07T13:18:27.826Z,29.37
2023-06-07T13:19:36.784Z,29.41
2023-06-07T13:20:43.143Z,30.24
2023-06-07T13:21:48.987Z,29.36
2023-06-07T13:22:53.876Z,29.65
2023-06-07T13:23:57.140Z,30.16
2023-06-07T13:25:00.543Z,30.16
2023-06-07T13:26:04.130Z,31.53
2023-06-07T13:27:09.467Z,32.50
2023-06-07T13:28:12.809Z,33.24
2023-06-07T13:29:19.345Z,33.49
2023-06-07T13:30:23.109Z,34.07
2023-06-07T13:31:28.286Z,34.88
2023-06-07T13:32:31.870Z,35.84
2023-06-07T13:33:35.452Z,36.15
2023-06-07T13:34:38.964Z,36.60
2023-06-07T13:35:42.775Z,38.00
2023-06-07T13:36:48.057Z,38.83
2023-06-07T13:37:53.755Z,40.82
2023-06-07T13:38:59.120Z,40.93
2023-06-07T13:40:03.497Z,41.23
2023-06-07T13:41:07.399Z,41.44
2023-06-07T13:42:10.435Z,41.46
2023-06-07T13:43:13.899Z,40.25
2023-06-07T13:44:19.154Z,40.05
2023-06-07T13:45:22.873Z,39.41
2023-06-07T13:46:26.414Z,39.58
2023-06-07T13:47:32.268Z,39.42
2023-06-07T13:48:38.757Z,39.16
2023-06-07T13:49:42.230Z,39.05
2023-06-07T13:50:45.525Z,39.57
2023-06-07T13:51:55.418Z,39.63
2023-06-07T13:52:59.073Z,39.69
2023-06-07T13:54:02.305Z,39.50
2023-06-07T13:55:06.494Z,39.47
2023-06-07T13:56:10.566Z,39.32
2023-06-07T13:57:16.582Z,39.49
2023-06-07T13:58:20.459Z,39.59
2023-06-07T13:59:26.486Z,40.02
2023-06-07T14:00:32.589Z,40.58
2023-06-07T14:01:37.839Z,41.63
2023-06-07T14:02:42.919Z,44.08
2023-06-07T14:03:46.971Z,46.84
2023-06-07T14:04:51.231Z,50.11